LiveATC.Net - Listen to live air traffic control over the Internet! Contact for advertising information

ICAO: KAPA  IATA: APA   Airport: Centennial Airport
City: Denver   State/Province: Colorado
Country: United States   Continent: North America
KAPA METAR Weather: KAPA 252253Z 08005KT 10SM OVC022 01/M03 A2991 RMK AO2 SLP145 T00061033
KAPA Flight Activity (FlightAware)
KAPA Airport Info   (AirNav) (iFlightPlanner)
KAPA VFR Sectional Chart   (iFlightPlanner) 
KAPA IFR Low Chart   (iFlightPlanner) 
KAPA Gnd/Twr/Denver App
Feed Status: UP   Listeners: 15
Listen right in your browser - requires Flash (in browser, requires Flash)
Click here to listen with your own player (launches your MP3 player)
KAPA Gnd/Twr/Denver App Audio Archives
Centennial Ground121.800
Centennial Tower118.900
Denver Approach132.750


Unauthorized use prohibited. See Terms of Service

Find LiveATC Audio Streams

Airport/ARTCC Code

(e.g., 124.400, 128.75)
Site-wide search

Browse LiveATC Feeds
LiveATC Coverage Map
Top 50 LiveATC Feeds
Bad Weather Areas

Offer a LiveATC Feed
Press Inquiries

LiveATC on iPhone
LiveATC on Android

Windows Phone
Windows 8/10

LiveATC Mobile
(Mobile browser)

ATC Audio Archives
Interesting Recordings

LiveATC Forums

Home Page
Make a Donation
LiveATC Bookstore

Terms of Use
Privacy Policy

ATC/Radar Sites
U.S. ARTCC Freqs
Canadian Air Freqs


FAA Airport Status
Nat'l Airspace Status
Arrival Demand Charts

Server Software By:

Please make a donation to help us keep growing!